Time;durP1;ratioP1;P1;durP2;ratioP2;P2;SDS_P1;SDS_P2;PMS_P1;PMS_P2;Temp;Humidity;BMP_temperature;BMP_pressure;BME280_temperature;BME280_humidity;BME280_pressure;Samples;Min_cycle;Max_cycle;Signal;HPM_P1;HPM_P2
2022/08/22 00:00:51;;;;;;;31.48;8.80;;;;;;;18.93;100.00;98917.25;1559023;89;21028;-72
2022/08/22 00:03:29;;;;;;;29.05;8.45;;;;;;;18.92;100.00;98914.88;1556629;89;21521;-71
2022/08/22 00:06:23;;;;;;;34.43;9.60;;;;;;;18.89;100.00;98912.78;1597518;88;21223;-70
2022/08/22 00:09:28;;;;;;;41.65;8.10;;;;;;;18.84;100.00;98913.21;1591907;88;21091;-72
2022/08/22 00:12:15;;;;;;;40.40;9.00;;;;;;;18.83;100.00;98914.31;1633559;86;23286;-71
2022/08/22 00:14:49;;;;;;;41.08;10.58;;;;;;;18.81;100.00;98922.03;1650396;85;20900;-70
2022/08/22 00:17:53;;;;;;;33.40;8.63;;;;;;;18.76;100.00;98923.53;1634968;85;21192;-68
2022/08/22 00:20:25;;;;;;;30.57;7.50;;;;;;;18.74;100.00;98916.79;1640444;84;21254;-69
2022/08/22 00:23:10;;;;;;;36.28;8.70;;;;;;;18.71;100.00;98922.31;1666041;84;21041;-69
2022/08/22 00:26:04;;;;;;;31.17;8.13;;;;;;;18.70;100.00;98918.58;1659432;83;21236;-71
2022/08/22 00:28:56;;;;;;;41.48;9.78;;;;;;;18.67;100.00;98920.56;1594901;89;21045;-71
2022/08/22 00:31:34;;;;;;;36.55;9.33;;;;;;;18.63;100.00;98921.21;1597806;89;21760;-70
2022/08/22 00:34:10;;;;;;;;;;;;;;;18.63;100.00;98919.06;1604551;87;21290;-69
2022/08/22 00:36:57;;;;;;;28.65;9.63;;;;;;;18.60;100.00;98922.43;1589160;89;20178;-70
2022/08/22 00:39:34;;;;;;;29.90;9.08;;;;;;;18.60;100.00;98921.86;1594510;89;21061;-69
2022/08/22 00:42:26;;;;;;;31.30;9.45;;;;;;;18.59;100.00;98927.08;1593064;89;20989;-69
2022/08/22 00:45:26;;;;;;;38.30;10.23;;;;;;;18.58;100.00;98928.74;1598948;88;21112;-69
2022/08/22 00:48:24;;;;;;;54.18;9.20;;;;;;;18.57;100.00;98932.56;1594516;89;21215;-69
2022/08/22 00:51:48;;;;;;;39.45;9.13;;;;;;;18.55;100.00;98929.39;1545830;90;22191;-69
2022/08/22 00:54:35;;;;;;;45.45;9.95;;;;;;;18.50;100.00;98922.77;1553258;90;21141;-70
2022/08/22 00:57:37;;;;;;;41.10;9.70;;;;;;;18.43;100.00;98917.25;1557679;90;21219;-70
2022/08/22 01:00:15;;;;;;;33.85;9.68;;;;;;;18.39;100.00;98916.28;1563567;89;21010;-69
2022/08/22 01:03:10;;;;;;;39.78;9.95;;;;;;;18.31;100.00;98916.30;1590211;88;21366;-69
2022/08/22 01:05:57;;;;;;;40.98;8.88;;;;;;;18.25;100.00;98921.11;1598917;88;21125;-72
2022/08/22 01:08:59;;;;;;;28.70;9.05;;;;;;;18.23;100.00;98926.05;1580536;88;21198;-71
2022/08/22 01:12:00;;;;;;;43.08;8.53;;;;;;;18.20;100.00;98929.39;1550683;89;21015;-71
2022/08/22 01:14:53;;;;;;;30.30;8.23;;;;;;;18.21;100.00;98933.16;1562517;90;21237;-71
2022/08/22 01:17:43;;;;;;;30.45;8.40;;;;;;;18.19;100.00;98938.10;1561917;90;21215;-70
2022/08/22 01:20:52;;;;;;;43.17;10.18;;;;;;;18.20;100.00;98936.17;1564375;90;21110;-70
2022/08/22 01:23:55;;;;;;;39.75;11.08;;;;;;;18.15;100.00;98938.52;1530220;91;21852;-70
2022/08/22 01:26:46;;;;;;;33.95;9.13;;;;;;;18.11;100.00;98932.11;1561012;89;21018;-70
2022/08/22 01:30:04;;;;;;;46.23;11.93;;;;;;;18.08;100.00;98931.41;1581747;87;21498;-70
2022/08/22 01:32:56;;;;;;;31.20;9.20;;;;;;;18.11;100.00;98938.11;1595170;88;21229;-72
2022/08/22 01:35:58;;;;;;;38.83;11.65;;;;;;;18.10;100.00;98942.72;1671698;83;21197;-71
2022/08/22 01:38:53;;;;;;;29.07;9.25;;;;;;;18.12;100.00;98939.13;1663155;83;21502;-71
2022/08/22 01:42:16;;;;;;;36.40;9.73;;;;;;;18.08;100.00;98937.37;1666034;83;23124;-72
2022/08/22 01:44:51;;;;;;;30.20;9.78;;;;;;;18.05;100.00;98936.66;1658841;83;21562;-70
2022/08/22 01:47:35;;;;;;;36.03;9.40;;;;;;;18.04;100.00;98935.86;1657706;85;21333;-70
2022/08/22 01:50:26;;;;;;;41.45;9.63;;;;;;;18.08;100.00;98933.30;1669495;84;20960;-70
2022/08/22 01:53:13;;;;;;;40.90;10.40;;;;;;;18.11;100.00;98938.91;1663383;83;21034;-70
2022/08/22 01:56:12;;;;;;;20.97;8.55;;;;;;;18.12;100.00;98924.76;1677602;82;21467;-70
2022/08/22 01:58:47;;;;;;;36.98;9.45;;;;;;;18.12;100.00;98924.20;1679945;82;20905;-70
2022/08/22 02:01:51;;;;;;;35.03;10.78;;;;;;;18.14;100.00;98933.39;1655970;83;21252;-70
2022/08/22 02:04:51;;;;;;;50.70;9.70;;;;;;;18.11;100.00;98930.76;1666874;84;21162;-70
2022/08/22 02:07:35;;;;;;;37.08;9.80;;;;;;;18.09;100.00;98934.91;1661981;83;21051;-69
2022/08/22 02:10:44;;;;;;;46.20;11.85;;;;;;;18.05;100.00;98942.08;1611332;85;21087;-70
2022/08/22 02:13:22;;;;;;;47.95;10.90;;;;;;;17.98;100.00;98953.41;1662686;83;20929;-70
2022/08/22 02:15:53;;;;;;;;;;;;;;;17.90;100.00;98949.56;1663324;84;21851;-71
2022/08/22 02:18:27;;;;;;;38.98;9.78;;;;;;;17.87;100.00;98950.77;1658407;84;20414;-69
2022/08/22 02:21:14;;;;;;;38.63;10.38;;;;;;;17.86;100.00;98953.23;1644668;84;20992;-71
2022/08/22 02:24:01;;;;;;;24.55;9.10;;;;;;;17.83;100.00;98954.66;1633375;85;20944;-70
2022/08/22 02:26:48;;;;;;;40.23;10.80;;;;;;;17.82;100.00;98956.36;1646352;86;21084;-69
2022/08/22 02:29:20;;;;;;;30.55;9.85;;;;;;;17.82;100.00;98963.14;1649914;85;21265;-70
2022/08/22 02:32:00;;;;;;;44.55;9.88;;;;;;;17.74;100.00;98957.34;1652203;85;20975;-70
2022/08/22 02:34:41;;;;;;;36.45;11.10;;;;;;;17.64;100.00;98953.57;1653149;85;21013;-69
2022/08/22 02:37:49;;;;;;;32.75;10.95;;;;;;;17.66;100.00;98951.31;1647909;84;21003;-69
2022/08/22 02:40:39;;;;;;;42.40;9.33;;;;;;;17.61;100.00;98954.17;1644085;84;21181;-69
2022/08/22 02:43:26;;;;;;;41.08;10.10;;;;;;;17.56;100.00;98955.67;1654589;84;22069;-70
2022/08/22 02:46:27;;;;;;;51.98;11.78;;;;;;;17.52;100.00;98954.16;1662373;85;20973;-70
2022/08/22 02:49:22;;;;;;;24.63;9.78;;;;;;;17.50;100.00;98957.74;1663463;85;21122;-70
2022/08/22 02:51:57;;;;;;;35.43;11.40;;;;;;;17.48;100.00;98955.10;1650081;85;20980;-70
2022/08/22 02:54:55;;;;;;;48.30;11.78;;;;;;;17.45;100.00;98950.31;1669885;82;21541;-69
2022/08/22 03:25:31;;;;;;;41.53;11.30;;;;;;;17.61;100.00;98975.88;1680144;84;21029;-71
2022/08/22 03:28:08;;;;;;;41.75;13.58;;;;;;;17.61;100.00;98980.52;1685548;84;21029;-70
2022/08/22 03:30:47;;;;;;;34.27;10.93;;;;;;;17.66;100.00;98974.38;1685247;83;21108;-68
2022/08/22 03:33:19;;;;;;;30.68;11.03;;;;;;;17.68;100.00;98976.79;1674495;84;21817;-71
2022/08/22 03:35:54;;;;;;;35.23;12.05;;;;;;;17.73;100.00;98978.80;1681239;84;21081;-70
2022/08/22 03:38:35;;;;;;;44.60;12.25;;;;;;;17.79;100.00;98982.19;1691866;83;21023;-69
2022/08/22 03:41:28;;;;;;;39.48;11.68;;;;;;;17.91;100.00;98976.19;1686690;83;21100;-69
2022/08/22 03:44:35;;;;;;;38.30;10.50;;;;;;;18.01;100.00;98985.38;1686194;83;21454;-69
2022/08/22 03:48:00;;;;;;;31.05;9.40;;;;;;;18.09;100.00;98985.94;1692972;83;21172;-70
2022/08/22 03:50:56;;;;;;;36.50;9.90;;;;;;;18.21;100.00;98990.19;1647692;84;21019;-68
2022/08/22 03:53:46;;;;;;;34.13;11.33;;;;;;;18.34;100.00;98990.36;1647100;84;21480;-70
2022/08/22 03:56:37;;;;;;;32.08;9.95;;;;;;;18.44;100.00;98995.47;1677011;83;21562;-70
2022/08/22 03:59:24;;;;;;;42.03;10.53;;;;;;;18.59;100.00;98997.73;1672529;84;20966;-69
2022/08/22 04:02:11;;;;;;;35.88;10.23;;;;;;;18.76;100.00;98993.42;1685189;83;21220;-70
2022/08/22 04:05:26;;;;;;;28.07;10.93;;;;;;;18.88;100.00;98994.92;1675374;83;20950;-69
2022/08/22 04:08:41;;;;;;;38.42;10.72;;;;;;;19.05;100.00;98997.61;1672136;83;21093;-69
2022/08/22 04:11:32;;;;;;;35.08;9.73;;;;;;;19.22;100.00;99008.22;1676176;83;20947;-70
2022/08/22 04:14:53;;;;;;;33.90;8.78;;;;;;;19.28;100.00;99005.58;1666157;83;21128;-69
2022/08/22 04:17:43;;;;;;;42.62;10.28;;;;;;;19.36;100.00;99010.75;1675844;83;21177;-70
2022/08/22 04:20:41;;;;;;;41.88;10.88;;;;;;;19.66;100.00;99015.66;1686481;82;20897;-70
2022/08/22 04:23:40;;;;;;;39.20;10.82;;;;;;;19.66;100.00;99015.66;1692149;84;20942;-71
2022/08/22 04:26:18;;;;;;;32.13;10.25;;;;;;;19.80;100.00;99019.56;1659046;85;21009;-70
2022/08/22 04:28:50;;;;;;;41.10;10.63;;;;;;;20.02;100.00;99030.17;1628916;86;20973;-71
2022/08/22 04:31:27;;;;;;;35.75;10.35;;;;;;;19.94;100.00;99031.57;1671583;84;21313;-70
2022/08/22 04:34:26;;;;;;;36.93;9.85;;;;;;;20.01;100.00;99034.58;1685592;84;20937;-68
2022/08/22 04:37:08;;;;;;;36.60;10.03;;;;;;;20.25;100.00;99030.66;1675091;84;21057;-69
2022/08/22 04:39:41;;;;;;;40.98;10.75;;;;;;;20.41;100.00;99022.72;1684423;83;20953;-68
2022/08/22 04:42:20;;;;;;;46.00;9.63;;;;;;;20.60;100.00;99031.80;1681213;84;20969;-71
2022/08/22 04:45:13;;;;;;;35.25;8.78;;;;;;;20.85;100.00;99028.64;1684644;83;21284;-70
2022/08/22 04:47:49;;;;;;;33.70;8.50;;;;;;;21.05;100.00;99032.47;1679949;84;20858;-71
2022/08/22 04:50:21;;;;;;;29.55;9.45;;;;;;;21.31;100.00;99026.75;1679001;83;21057;-71
2022/08/22 04:53:38;;;;;;;35.73;8.85;;;;;;;21.36;100.00;99033.90;1682204;84;20918;-71
2022/08/22 04:56:25;;;;;;;47.33;9.45;;;;;;;21.43;100.00;99037.47;1668378;84;20997;-72
2022/08/22 04:59:11;;;;;;;;;;;;;;;21.37;100.00;99038.23;1671403;84;21219;-72
2022/08/22 05:01:57;;;;;;;29.72;8.43;;;;;;;21.65;100.00;99043.88;1680854;83;20135;-71
2022/08/22 05:04:29;;;;;;;41.47;9.33;;;;;;;21.77;100.00;99041.73;1689021;83;20961;-71
2022/08/22 05:07:15;;;;;;;34.15;10.20;;;;;;;21.99;100.00;99046.73;1692763;83;22475;-71
2022/08/22 05:09:48;;;;;;;31.02;9.18;;;;;;;22.26;100.00;99043.09;1684373;83;20958;-70
2022/08/22 05:12:20;;;;;;;36.48;8.03;;;;;;;22.58;100.00;99044.05;1690755;83;21450;-70
2022/08/22 05:14:55;;;;;;;26.12;8.70;;;;;;;22.86;100.00;99047.41;1689621;83;21525;-70
2022/08/22 05:17:25;;;;;;;33.18;10.10;;;;;;;23.05;100.00;99052.23;1683336;84;20906;-72
2022/08/22 05:19:57;;;;;;;37.85;7.87;;;;;;;23.03;100.00;99069.60;1685063;83;21780;-68
2022/08/22 05:22:28;;;;;;;35.00;8.58;;;;;;;22.92;100.00;99066.52;1652166;84;20906;-72
2022/08/22 05:25:02;;;;;;;35.30;8.85;;;;;;;23.10;100.00;99062.93;1658317;84;21742;-71
2022/08/22 05:27:34;;;;;;;29.60;7.30;;;;;;;23.27;100.00;99063.19;1635445;86;20906;-70
2022/08/22 05:30:11;;;;;;;39.58;8.45;;;;;;;22.99;100.00;99064.59;1652557;85;21050;-70
2022/08/22 05:32:53;;;;;;;43.42;9.00;;;;;;;22.89;100.00;99083.06;1628844;85;21370;-69
2022/08/22 05:35:37;;;;;;;24.12;7.35;;;;;;;22.90;100.00;99081.12;1633167;85;20928;-71
2022/08/22 05:38:05;;;;;;;31.20;7.15;;;;;;;22.92;100.00;99075.30;1640138;85;21171;-71
2022/08/22 05:40:32;;;;;;;43.60;8.03;;;;;;;23.15;100.00;99078.31;1634675;85;20966;-70
2022/08/22 05:42:59;;;;;;;36.65;8.48;;;;;;;23.24;100.00;99080.33;1655182;84;21026;-72
2022/08/22 05:45:27;;;;;;;31.65;7.10;;;;;;;23.11;100.00;99079.59;1658558;84;21139;-69
2022/08/22 05:48:05;;;;;;;27.58;7.95;;;;;;;23.20;100.00;99073.95;1660225;84;21581;-72
2022/08/22 05:50:42;;;;;;;27.75;7.95;;;;;;;23.60;100.00;99076.59;1645721;84;21915;-70
2022/08/22 05:53:23;;;;;;;33.18;7.60;;;;;;;23.85;100.00;99080.56;1657548;84;21613;-68
2022/08/22 05:56:13;;;;;;;33.55;7.87;;;;;;;23.74;100.00;99072.88;1665304;84;20981;-71
2022/08/22 05:58:45;;;;;;;28.20;7.50;;;;;;;23.52;100.00;99078.94;1644120;84;21513;-70
2022/08/22 06:01:36;;;;;;;28.50;7.87;;;;;;;23.43;100.00;99074.98;1656002;84;21620;-71
2022/08/22 06:04:24;;;;;;;37.40;9.18;;;;;;;23.56;100.00;99079.02;1662680;84;21347;-69
2022/08/22 06:06:56;;;;;;;;;;;;;;;23.61;100.00;99068.58;1640854;85;21116;-71
2022/08/22 06:09:44;;;;;;;30.97;8.00;;;;;;;23.78;100.00;99070.80;1653858;85;20415;-71
2022/08/22 06:12:20;;;;;;;26.20;6.97;;;;;;;24.16;100.00;99074.27;1609677;88;21100;-70
2022/08/22 06:15:04;;;;;;;29.23;7.67;;;;;;;24.78;100.00;99081.33;1609645;87;20995;-71
2022/08/22 06:17:37;;;;;;;29.35;7.78;;;;;;;24.79;100.00;99085.09;1636257;86;21268;-72
2022/08/22 06:20:08;;;;;;;24.05;6.42;;;;;;;25.34;100.00;99089.72;1611632;85;21617;-70
2022/08/22 06:22:40;;;;;;;32.42;7.72;;;;;;;25.62;100.00;99096.30;1654701;85;20991;-70
2022/08/22 06:25:13;;;;;;;36.88;7.97;;;;;;;25.66;100.00;99105.41;1643675;85;21054;-69
2022/08/22 06:27:40;;;;;;;38.53;7.60;;;;;;;25.74;100.00;99106.33;1654487;85;21467;-70
2022/08/22 06:30:11;;;;;;;27.80;6.72;;;;;;;26.06;100.00;99101.39;1649314;85;21430;-70
2022/08/22 06:32:44;;;;;;;29.25;7.53;;;;;;;26.20;100.00;99101.62;1630682;85;21084;-70
2022/08/22 06:35:22;;;;;;;29.20;7.62;;;;;;;26.36;100.00;99106.16;1658606;85;21489;-70
2022/08/22 06:37:49;;;;;;;29.12;7.65;;;;;;;26.68;100.00;99103.92;1661149;84;21190;-70
2022/08/22 06:40:16;;;;;;;28.30;7.70;;;;;;;26.80;100.00;99116.63;1660106;85;21153;-70
2022/08/22 06:42:49;;;;;;;39.48;6.78;;;;;;;26.98;100.00;99113.54;1659467;85;21282;-70
2022/08/22 06:45:31;;;;;;;28.12;7.62;;;;;;;27.26;100.00;99113.69;1641165;84;21728;-70
2022/08/22 06:48:11;;;;;;;32.17;6.60;;;;;;;27.39;96.09;99112.28;1663849;85;21044;-70
2022/08/22 06:50:41;;;;;;;37.50;7.58;;;;;;;27.72;95.26;99114.75;1670992;84;20981;-70
2022/08/22 06:53:18;;;;;;;39.25;6.92;;;;;;;28.21;88.30;99117.75;1689862;83;21195;-70
2022/08/22 06:55:51;;;;;;;30.20;6.85;;;;;;;28.19;79.10;99114.58;1671124;84;21358;-72
2022/08/22 06:58:24;;;;;;;52.93;7.40;;;;;;;28.02;79.64;99109.72;1679279;84;20867;-70
2022/08/22 07:00:54;;;;;;;40.23;6.83;;;;;;;28.02;77.44;99115.23;1681423;84;21036;-69
2022/08/22 07:03:34;;;;;;;33.23;6.95;;;;;;;28.22;76.93;99113.81;1691293;84;21032;-71
2022/08/22 07:06:02;;;;;;;44.75;7.53;;;;;;;28.07;75.92;99122.56;1673515;84;21093;-70
2022/08/22 07:08:32;;;;;;;37.50;6.90;;;;;;;27.94;77.56;99120.69;1650551;85;21172;-69
2022/08/22 07:11:23;;;;;;;27.35;6.58;;;;;;;28.12;80.24;99122.20;1665894;84;20899;-69
2022/08/22 07:14:01;;;;;;;42.70;7.17;;;;;;;28.42;74.37;99118.50;1666457;84;21119;-69
2022/08/22 07:16:33;;;;;;;39.75;7.70;;;;;;;28.29;70.78;99120.76;1654353;84;20964;-70
2022/08/22 07:19:01;;;;;;;30.72;5.80;;;;;;;28.40;72.31;99116.71;1668688;85;20964;-71
2022/08/22 07:21:33;;;;;;;36.20;7.08;;;;;;;28.55;69.49;99116.23;1653359;84;21237;-70
2022/08/22 07:24:00;;;;;;;42.15;7.42;;;;;;;28.70;67.99;99114.34;1667719;84;21058;-72
2022/08/22 07:26:38;;;;;;;51.98;7.78;;;;;;;28.74;66.16;99120.09;1687810;83;20908;-69
2022/08/22 07:29:27;;;;;;;34.90;7.17;;;;;;;28.83;67.04;99121.11;1688378;82;20955;-68
2022/08/22 07:32:08;;;;;;;35.68;7.15;;;;;;;28.92;65.91;99118.01;1675296;83;20855;-70
2022/08/22 07:35:09;;;;;;;33.35;6.28;;;;;;;28.69;65.21;99121.03;1692104;83;21269;-68
2022/08/22 07:38:07;;;;;;;35.58;7.03;;;;;;;28.76;66.82;99108.64;1657489;84;20952;-72
2022/08/22 07:40:52;;;;;;;33.18;6.22;;;;;;;28.58;64.57;99116.84;1627203;85;20932;-70
2022/08/22 07:43:36;;;;;;;35.35;6.70;;;;;;;28.72;63.18;99123.05;1679080;82;20961;-70
2022/08/22 07:46:33;;;;;;;21.55;5.10;;;;;;;28.80;62.66;99118.53;1653768;83;21012;-73
2022/08/22 07:49:16;;;;;;;34.63;6.00;;;;;;;28.85;61.10;99114.02;1651064;84;21282;-69
2022/08/22 07:51:46;;;;;;;26.82;6.28;;;;;;;28.88;61.30;99115.21;1672620;83;21005;-69
2022/08/22 07:54:18;;;;;;;26.62;5.58;;;;;;;28.75;61.53;99112.59;1666958;84;21006;-70
2022/08/22 07:56:53;;;;;;;25.70;5.45;;;;;;;29.00;61.52;99114.09;1665115;84;20978;-70
2022/08/22 07:59:21;;;;;;;28.98;5.78;;;;;;;28.74;60.59;99119.31;1656325;84;20908;-70
2022/08/22 08:01:52;;;;;;;32.83;5.20;;;;;;;28.66;60.63;99117.08;1648409;85;21742;-71
2022/08/22 08:04:25;;;;;;;26.68;5.55;;;;;;;28.88;61.07;99121.33;1657071;85;20956;-70
2022/08/22 08:06:56;;;;;;;25.85;4.80;;;;;;;29.17;58.63;99116.75;1672873;83;21696;-70
2022/08/22 08:09:22;;;;;;;26.60;5.33;;;;;;;29.20;58.58;99111.81;1681178;83;20993;-69
2022/08/22 08:11:51;;;;;;;19.67;4.57;;;;;;;29.18;58.04;99114.98;1687287;84;20898;-74
2022/08/22 08:14:21;;;;;;;20.62;4.72;;;;;;;29.29;57.23;99113.62;1661767;84;21180;-69
2022/08/22 08:17:05;;;;;;;18.92;4.80;;;;;;;29.48;56.48;99116.64;1656116;84;20966;-73
2022/08/22 08:19:34;;;;;;;28.77;4.50;;;;;;;29.56;54.78;99121.59;1650430;83;21028;-71
2022/08/22 08:22:01;;;;;;;20.02;4.50;;;;;;;29.28;54.74;99118.37;1657846;85;20963;-68
2022/08/22 08:24:31;;;;;;;20.53;4.37;;;;;;;29.28;55.17;99118.37;1650675;85;21048;-71
2022/08/22 08:30:00;;;;;;;19.82;4.12;;;;;;;29.43;52.36;99114.27;1652868;85;20948;-68
2022/08/22 08:32:34;;;;;;;20.97;4.35;;;;;;;29.42;51.75;99120.95;1640294;85;22297;-70
2022/08/22 08:35:10;;;;;;;22.37;4.50;;;;;;;29.48;51.58;99120.79;1643179;85;21437;-71
2022/08/22 08:37:48;;;;;;;17.10;3.83;;;;;;;29.51;51.07;99128.30;1640947;85;20955;-69
2022/08/22 08:40:24;;;;;;;20.77;3.85;;;;;;;29.47;50.81;99127.48;1650364;85;39080;-70
2022/08/22 08:43:28;;;;;;;19.42;3.95;;;;;;;29.57;50.32;99125.36;1671691;83;20991;-71
2022/08/22 08:46:51;;;;;;;21.20;3.90;;;;;;;29.65;49.70;99120.03;1605859;86;21024;-72
2022/08/22 08:49:39;;;;;;;28.80;4.25;;;;;;;29.87;49.51;99116.72;1613249;86;20984;-69
2022/08/22 08:52:44;;;;;;;15.95;4.50;;;;;;;29.91;49.79;99115.33;1585643;87;21139;-72
2022/08/22 08:55:46;;;;;;;17.55;3.70;;;;;;;29.89;48.61;99115.73;1588816;87;21251;-72
2022/08/22 08:58:42;;;;;;;17.85;4.03;;;;;;;30.02;48.60;99100.13;1590054;87;21286;-68
2022/08/22 09:01:38;;;;;;;22.22;4.45;;;;;;;30.06;48.42;99106.42;1597342;88;21002;-68
2022/08/22 09:04:45;;;;;;;27.15;4.10;;;;;;;30.20;47.65;99102.88;1592208;88;21047;-67
2022/08/22 09:07:40;;;;;;;32.08;4.22;;;;;;;30.22;48.47;99101.88;1599738;88;21610;-69
2022/08/22 09:10:46;;;;;;;33.95;4.55;;;;;;;30.34;47.05;99103.67;1596733;88;21179;-71
2022/08/22 09:13:45;;;;;;;26.65;3.77;;;;;;;30.19;47.09;99106.84;1606253;88;21058;-72
2022/08/22 09:16:44;;;;;;;19.37;4.22;;;;;;;30.47;47.11;99099.09;1575932;88;21012;-69
2022/08/22 09:19:39;;;;;;;24.85;4.03;;;;;;;30.53;46.26;99101.06;1607560;87;21662;-69
2022/08/22 09:22:36;;;;;;;20.62;4.05;;;;;;;30.32;46.58;99096.95;1566411;88;21168;-69
2022/08/22 09:25:23;;;;;;;;;;;;;;;30.50;47.32;99090.80;1583203;89;21259;-70
2022/08/22 09:28:01;;;;;;;19.15;3.50;;;;;;;30.92;47.18;99088.31;1563725;87;20164;-71
2022/08/22 09:30:50;;;;;;;25.08;5.05;;;;;;;31.18;46.55;99088.36;1596937;87;21251;-70
2022/08/22 09:33:19;;;;;;;29.07;5.50;;;;;;;31.11;45.43;99085.63;1632223;84;21013;-70
2022/08/22 09:36:03;;;;;;;29.25;4.25;;;;;;;31.17;45.61;99086.20;1649775;84;21081;-70
2022/08/22 09:38:58;;;;;;;18.10;4.10;;;;;;;31.18;45.83;99080.83;1661659;84;21265;-72
2022/08/22 09:41:39;;;;;;;23.25;5.08;;;;;;;31.46;45.63;99074.97;1642043;84;21098;-73
2022/08/22 09:44:34;;;;;;;24.95;5.03;;;;;;;31.35;44.91;99074.99;1654353;84;20992;-70
2022/08/22 09:47:31;;;;;;;32.20;5.87;;;;;;;31.35;43.93;99076.98;1620389;85;21066;-69
2022/08/22 09:50:16;;;;;;;23.52;4.40;;;;;;;31.37;44.10;99074.59;1628498;85;21049;-70
2022/08/22 09:53:03;;;;;;;34.13;5.50;;;;;;;31.33;44.92;99076.59;1628590;86;21929;-71
2022/08/22 09:55:56;;;;;;;24.23;4.35;;;;;;;31.44;44.60;99066.87;1642054;85;21087;-70
2022/08/22 09:58:29;;;;;;;26.60;4.65;;;;;;;31.49;43.96;99067.22;1634165;85;21484;-68
2022/08/22 10:01:06;;;;;;;23.60;4.22;;;;;;;31.45;44.28;99067.05;1640549;86;21010;-70
2022/08/22 10:04:08;;;;;;;23.55;3.62;;;;;;;31.17;43.94;99066.80;1654665;85;21008;-73
2022/08/22 10:06:44;;;;;;;19.77;5.08;;;;;;;31.22;43.31;99045.39;1627344;85;21253;-68
2022/08/22 10:09:52;;;;;;;26.95;4.75;;;;;;;31.12;44.21;99071.37;1627351;85;21135;-68
2022/08/22 10:12:28;;;;;;;28.65;5.37;;;;;;;31.14;44.07;99068.22;1630474;86;21181;-69
2022/08/22 10:15:04;;;;;;;17.67;4.67;;;;;;;31.26;44.56;99066.36;1638143;86;21011;-71
2022/08/22 10:17:38;;;;;;;21.15;4.67;;;;;;;31.30;43.72;99072.66;1638536;86;20931;-71
2022/08/22 10:20:13;;;;;;;30.92;5.60;;;;;;;31.26;44.12;99074.67;1636561;84;21199;-70
2022/08/22 10:22:51;;;;;;;26.48;5.80;;;;;;;31.20;44.00;99073.51;1652655;84;20967;-71
2022/08/22 10:25:32;;;;;;;22.90;4.70;;;;;;;31.29;43.73;99078.02;1653101;85;21064;-72
2022/08/22 10:28:26;;;;;;;21.27;4.37;;;;;;;31.37;43.40;99079.54;1655111;85;21015;-71
2022/08/22 10:31:13;;;;;;;24.55;5.03;;;;;;;31.34;42.50;99076.20;1675126;83;21175;-71
2022/08/22 10:33:48;;;;;;;23.00;5.10;;;;;;;31.47;42.63;99070.20;1669082;85;21349;-71
2022/08/22 10:36:31;;;;;;;26.30;4.85;;;;;;;31.40;42.90;99069.05;1665333;84;20998;-73
2022/08/22 10:38:59;;;;;;;23.40;4.25;;;;;;;31.42;43.23;99062.33;1688028;83;21081;-70
2022/08/22 10:41:43;;;;;;;33.83;4.87;;;;;;;31.60;40.86;99074.88;1694723;83;21087;-71
2022/08/22 10:44:35;;;;;;;32.17;5.03;;;;;;;31.49;40.64;99069.99;1690179;83;21030;-69
2022/08/22 10:47:18;;;;;;;30.55;5.78;;;;;;;31.48;40.90;99075.36;1669912;84;21544;-71
2022/08/22 12:09:58;;;;;;;40.67;5.92;;;;;;;32.00;36.02;99082.91;1708808;82;20901;-73
2022/08/22 12:12:59;;;;;;;35.48;5.58;;;;;;;31.83;36.47;99074.89;1696271;83;21488;-70
2022/08/22 12:15:44;;;;;;;32.75;5.62;;;;;;;31.88;34.81;99073.67;1705804;82;21691;-72
2022/08/22 12:18:35;;;;;;;31.17;5.80;;;;;;;31.90;35.14;99083.73;1679114;83;20967;-69
2022/08/22 12:21:41;;;;;;;35.43;5.62;;;;;;;32.01;34.75;99078.31;1709128;81;21299;-70
2022/08/22 12:24:23;;;;;;;37.88;5.20;;;;;;;32.19;34.28;99076.78;1727916;81;21107;-70
2022/08/22 12:27:16;;;;;;;29.85;4.33;;;;;;;32.16;34.06;99064.30;1743397;81;21101;-72
2022/08/22 12:30:13;;;;;;;39.67;5.80;;;;;;;31.93;33.79;99074.01;1736397;81;21003;-70
2022/08/22 12:32:57;;;;;;;38.15;5.65;;;;;;;31.95;33.49;99080.58;1717943;81;20955;-74
2022/08/22 12:35:35;;;;;;;29.10;4.87;;;;;;;32.07;32.66;99074.52;1714919;80;21276;-70
2022/08/22 12:38:33;;;;;;;41.00;5.72;;;;;;;32.07;31.96;99071.74;1702482;83;21080;-71
2022/08/22 12:41:15;;;;;;;40.58;6.70;;;;;;;32.00;31.78;99067.64;1695232;83;21614;-72
2022/08/22 12:44:05;;;;;;;36.90;5.40;;;;;;;31.96;32.51;99066.88;1692335;83;21060;-71
2022/08/22 12:47:01;;;;;;;45.33;6.83;;;;;;;32.05;31.17;99072.75;1692011;83;20958;-70
2022/08/22 12:49:43;;;;;;;33.98;6.50;;;;;;;32.02;31.92;99079.09;1684489;83;21225;-70
2022/08/22 12:52:38;;;;;;;36.58;5.17;;;;;;;32.08;32.21;99075.30;1698844;83;20987;-71
2022/08/22 12:55:33;;;;;;;34.90;5.80;;;;;;;32.09;31.58;99074.09;1694643;83;21026;-72
2022/08/22 12:58:41;;;;;;;49.93;7.10;;;;;;;31.97;31.66;99068.44;1684764;83;21057;-71
2022/08/22 13:01:08;;;;;;;29.85;5.70;;;;;;;31.92;31.16;99073.83;1696973;83;21801;-71
2022/08/22 13:03:42;;;;;;;53.98;7.85;;;;;;;32.03;31.70;99074.53;1693701;83;21311;-72
2022/08/22 13:06:43;;;;;;;58.40;8.58;;;;;;;32.21;31.88;99070.19;1722592;82;21076;-71
2022/08/22 13:09:19;;;;;;;52.60;8.43;;;;;;;32.24;31.22;99072.17;1690964;83;20974;-70
2022/08/22 13:11:51;;;;;;;47.67;6.92;;;;;;;32.39;31.67;99072.80;1725823;82;21088;-70
2022/08/22 13:14:22;;;;;;;59.67;7.42;;;;;;;32.55;31.82;99075.02;1693955;82;21578;-71
2022/08/22 13:16:56;;;;;;;49.77;8.80;;;;;;;32.49;31.79;99068.94;1715573;80;22229;-70
2022/08/22 13:19:28;;;;;;;60.98;8.38;;;;;;;32.51;32.38;99066.55;1716917;80;20891;-69
2022/08/22 13:22:08;;;;;;;45.28;7.53;;;;;;;32.76;32.20;99073.22;1724513;80;21092;-69
2022/08/22 13:24:49;;;;;;;53.20;7.80;;;;;;;32.83;32.35;99068.97;1708139;82;20970;-70
2022/08/22 13:27:42;;;;;;;44.90;6.90;;;;;;;32.53;32.95;99073.87;1764751;79;20970;-68
2022/08/22 13:30:17;;;;;;;41.85;7.15;;;;;;;32.33;33.00;99069.49;1756080;79;21730;-71
2022/08/22 13:32:50;;;;;;;45.12;7.42;;;;;;;32.39;33.04;99076.19;1737594;80;20981;-72
2022/08/22 13:35:25;;;;;;;45.35;7.95;;;;;;;32.21;34.08;99070.19;1765932;79;21017;-71
2022/08/22 13:37:57;;;;;;;59.67;9.58;;;;;;;32.10;33.52;99073.69;1721530;82;21522;-73
2022/08/22 13:40:30;;;;;;;61.77;7.97;;;;;;;31.92;34.87;99079.95;1717967;81;21106;-70
2022/08/22 13:43:08;;;;;;;43.50;7.75;;;;;;;32.05;34.93;99071.97;1758911;78;21873;-70
2022/08/22 13:45:37;;;;;;;47.30;7.72;;;;;;;31.95;35.20;99073.64;1766438;78;20973;-72
2022/08/22 13:48:11;;;;;;;44.20;10.45;;;;;;;32.06;34.99;99067.98;1763163;79;21024;-70
2022/08/22 13:51:04;;;;;;;59.53;10.90;;;;;;;31.97;34.82;99078.97;1753214;79;21008;-72
2022/08/22 13:53:51;;;;;;;63.23;9.10;;;;;;;32.08;35.44;99067.75;1765488;79;21009;-70
2022/08/22 13:56:23;;;;;;;58.20;9.23;;;;;;;32.00;35.09;99069.81;1767145;79;21290;-70
2022/08/22 13:58:54;;;;;;;64.42;10.08;;;;;;;32.01;35.36;99071.98;1755633;79;21542;-70
2022/08/22 14:01:48;;;;;;;66.42;8.43;;;;;;;31.96;36.20;99076.59;1761377;79;21006;-70
2022/08/22 14:04:26;;;;;;;56.90;9.30;;;;;;;31.96;36.17;99072.43;1757070;79;21002;-69
2022/08/22 14:07:11;;;;;;;51.23;8.50;;;;;;;31.84;36.39;99083.39;1752466;80;20989;-72
2022/08/22 14:09:54;;;;;;;53.95;7.75;;;;;;;31.88;35.87;99084.77;1760719;79;21539;-69
2022/08/22 14:12:27;;;;;;;55.08;8.03;;;;;;;31.76;36.78;99083.27;1748101;79;20910;-69
2022/08/22 14:15:01;;;;;;;49.50;7.92;;;;;;;31.64;36.97;99083.77;1740559;79;21038;-69
2022/08/22 14:17:36;;;;;;;56.77;9.10;;;;;;;31.57;36.78;99088.75;1744414;79;20986;-69
2022/08/22 14:20:11;;;;;;;56.92;7.92;;;;;;;31.58;36.66;99086.19;1751663;79;21088;-70
2022/08/22 14:22:41;;;;;;;41.70;7.62;;;;;;;31.54;36.55;99085.41;1739306;80;21246;-70
2022/08/22 14:25:18;;;;;;;44.75;7.37;;;;;;;31.32;36.82;99079.19;1751465;80;21517;-69
2022/08/22 14:27:59;;;;;;;59.50;9.45;;;;;;;31.28;37.01;99083.36;1744589;80;21106;-70
2022/08/22 14:30:35;;;;;;;41.60;7.33;;;;;;;31.23;37.39;99082.39;1746265;80;20988;-69